createdAt,value
2022-07-29T00:00:54.995Z,62.69
2022-07-29T00:02:56.967Z,62.67
2022-07-29T00:04:59.992Z,62.69
2022-07-29T00:07:01.758Z,62.70
2022-07-29T00:09:03.798Z,62.62
2022-07-29T00:11:06.110Z,62.28
2022-07-29T00:13:09.066Z,62.06
2022-07-29T00:15:11.166Z,62.11
2022-07-29T00:17:14.885Z,61.95
2022-07-29T00:19:22.309Z,61.89
2022-07-29T00:21:25.088Z,61.41
2022-07-29T00:23:26.904Z,61.80
2022-07-29T00:25:28.575Z,61.63
2022-07-29T00:27:30.258Z,61.57
2022-07-29T00:29:34.181Z,61.52
2022-07-29T00:31:36.584Z,61.58
2022-07-29T00:33:38.398Z,61.27
2022-07-29T00:35:45.959Z,61.33
2022-07-29T00:37:47.777Z,62.04
2022-07-29T00:39:49.609Z,62.35
2022-07-29T00:41:51.353Z,63.56
2022-07-29T00:43:53.064Z,63.57
2022-07-29T00:45:54.827Z,63.87
2022-07-29T00:47:56.848Z,63.50
2022-07-29T00:49:58.784Z,63.41
2022-07-29T00:52:03.299Z,64.36
2022-07-29T00:54:05.918Z,66.39
2022-07-29T00:56:07.632Z,66.97
2022-07-29T00:58:09.874Z,67.84
2022-07-29T01:00:14.848Z,67.65
2022-07-29T01:02:16.692Z,67.74
2022-07-29T01:04:18.768Z,68.73
2022-07-29T01:06:21.270Z,68.72
2022-07-29T01:08:24.026Z,70.06
2022-07-29T01:10:26.116Z,70.38
2022-07-29T01:12:28.619Z,70.04
2022-07-29T01:14:31.030Z,70.66
2022-07-29T01:16:34.021Z,70.34
2022-07-29T01:18:40.724Z,70.82
2022-07-29T01:21:07.255Z,70.15
2022-07-29T01:23:44.144Z,69.92
2022-07-29T01:26:01.761Z,69.29
2022-07-29T01:28:04.656Z,68.76
2022-07-29T01:30:07.489Z,68.41
2022-07-29T01:32:22.579Z,67.88
2022-07-29T01:34:46.919Z,67.02
2022-07-29T01:36:57.728Z,66.93
2022-07-29T01:39:05.917Z,66.48
2022-07-29T01:41:10.979Z,66.29
2022-07-29T01:43:15.077Z,66.17
2022-07-29T01:45:21.036Z,65.85
2022-07-29T01:47:26.934Z,65.76
2022-07-29T01:49:31.471Z,65.44
2022-07-29T01:51:39.563Z,65.20
2022-07-29T01:54:05.235Z,65.09
2022-07-29T01:56:08.103Z,65.25
2022-07-29T01:58:10.099Z,65.24
2022-07-29T02:00:12.495Z,65.42
2022-07-29T02:02:16.613Z,65.56
2022-07-29T02:04:29.365Z,65.28
2022-07-29T02:06:32.755Z,65.03
2022-07-29T02:08:34.899Z,64.91
2022-07-29T02:10:37.282Z,64.99
2022-07-29T02:12:40.256Z,65.00
2022-07-29T02:14:46.070Z,64.52
2022-07-29T02:16:51.290Z,64.44
2022-07-29T02:18:54.890Z,64.48
2022-07-29T02:20:56.489Z,64.59
2022-07-29T02:23:00.744Z,64.65
2022-07-29T02:25:03.179Z,64.64
2022-07-29T02:27:05.621Z,64.25
2022-07-29T02:29:07.967Z,64.16
2022-07-29T02:31:10.618Z,64.12
2022-07-29T02:33:15.087Z,64.05
2022-07-29T02:35:17.244Z,63.89
2022-07-29T02:37:19.626Z,64.15
2022-07-29T02:39:21.648Z,64.05
2022-07-29T02:41:33.025Z,64.32
2022-07-29T02:43:35.770Z,64.44
2022-07-29T02:45:37.685Z,64.31
2022-07-29T02:47:44.890Z,64.35
2022-07-29T02:50:00.845Z,64.41
2022-07-29T02:52:25.000Z,64.19
2022-07-29T02:54:40.465Z,64.68
2022-07-29T02:56:43.897Z,65.71
2022-07-29T02:58:51.082Z,66.66
2022-07-29T03:00:53.776Z,66.96
2022-07-29T03:02:57.966Z,66.99
2022-07-29T03:05:01.144Z,67.11
2022-07-29T03:07:03.391Z,67.35
2022-07-29T03:09:10.613Z,67.44
2022-07-29T03:11:15.261Z,67.73
2022-07-29T03:13:17.236Z,67.96
2022-07-29T03:15:19.698Z,68.00
2022-07-29T03:17:22.614Z,68.16
2022-07-29T03:19:24.439Z,68.20
2022-07-29T03:21:26.101Z,67.96
2022-07-29T03:23:28.977Z,67.44
2022-07-29T03:25:36.989Z,66.87
2022-07-29T03:27:38.656Z,66.49
2022-07-29T03:29:40.279Z,65.95
2022-07-29T03:31:45.293Z,65.63
2022-07-29T03:33:48.172Z,65.51
2022-07-29T03:35:49.810Z,65.38
2022-07-29T03:37:51.561Z,65.09
2022-07-29T03:39:56.421Z,64.95
2022-07-29T03:41:59.753Z,65.14
2022-07-29T03:44:01.936Z,65.15
2022-07-29T03:46:05.315Z,65.06
2022-07-29T03:48:14.607Z,64.61
2022-07-29T03:50:16.796Z,64.76
2022-07-29T03:52:18.665Z,65.12
2022-07-29T03:54:21.427Z,65.15
2022-07-29T03:56:24.183Z,65.17
2022-07-29T03:58:27.618Z,64.96
2022-07-29T04:00:29.893Z,64.95
2022-07-29T04:02:33.019Z,65.66
2022-07-29T04:04:37.770Z,66.61
2022-07-29T04:06:43.766Z,67.73
2022-07-29T04:08:45.416Z,68.93
2022-07-29T04:10:48.534Z,69.94
2022-07-29T04:12:50.874Z,69.47
2022-07-29T04:14:52.556Z,69.41
2022-07-29T04:16:54.175Z,69.44
2022-07-29T04:18:55.826Z,68.96
2022-07-29T04:21:00.101Z,68.16
2022-07-29T04:23:01.758Z,67.67
2022-07-29T04:25:04.367Z,66.90
2022-07-29T04:27:06.345Z,66.08
2022-07-29T04:29:07.976Z,65.63
2022-07-29T04:31:10.498Z,65.39
2022-07-29T04:33:13.046Z,64.81
2022-07-29T04:35:14.696Z,64.44
2022-07-29T04:37:16.349Z,64.11
2022-07-29T04:39:22.794Z,64.01
2022-07-29T04:41:32.552Z,63.65
2022-07-29T04:43:36.723Z,63.32
2022-07-29T04:45:38.584Z,63.39
2022-07-29T04:47:41.948Z,63.31
2022-07-29T04:49:43.541Z,63.57
2022-07-29T04:51:45.154Z,63.19
2022-07-29T04:53:46.829Z,62.92
2022-07-29T04:55:48.565Z,62.61
2022-07-29T04:57:50.186Z,62.68
2022-07-29T04:59:51.826Z,63.38
2022-07-29T05:01:53.525Z,63.57
2022-07-29T05:04:00.180Z,63.87
2022-07-29T05:06:02.355Z,63.72
2022-07-29T05:08:04.413Z,63.51
2022-07-29T05:10:06.555Z,63.17
2022-07-29T05:12:08.402Z,63.15
2022-07-29T05:14:10.142Z,62.72
2022-07-29T05:16:11.935Z,62.54
2022-07-29T05:18:13.843Z,61.77
2022-07-29T05:20:15.549Z,61.40
2022-07-29T05:22:17.217Z,61.15
2022-07-29T05:24:19.382Z,61.15
2022-07-29T05:26:21.346Z,60.40
2022-07-29T05:28:23.322Z,59.82
2022-07-29T05:30:25.088Z,59.94
2022-07-29T05:32:26.768Z,59.72
2022-07-29T05:34:28.440Z,59.68
2022-07-29T05:36:30.160Z,59.91
2022-07-29T05:38:31.814Z,59.58
2022-07-29T05:40:33.594Z,59.27
2022-07-29T05:42:35.689Z,59.25
2022-07-29T05:44:38.875Z,59.48
2022-07-29T05:46:40.724Z,59.73
2022-07-29T05:48:42.686Z,59.44
2022-07-29T05:50:44.502Z,59.12
2022-07-29T05:52:46.214Z,59.25
2022-07-29T05:54:48.295Z,58.58
2022-07-29T05:56:49.970Z,58.30
2022-07-29T05:58:52.569Z,58.03
2022-07-29T06:00:54.253Z,58.01
2022-07-29T06:02:55.887Z,57.95
2022-07-29T06:04:57.668Z,57.65
2022-07-29T06:06:59.381Z,56.95
2022-07-29T06:09:02.023Z,56.84
2022-07-29T06:11:14.665Z,57.40
2022-07-29T06:13:17.118Z,57.25
2022-07-29T06:15:18.943Z,57.59
2022-07-29T06:17:20.648Z,57.27
2022-07-29T06:19:22.439Z,57.46
2022-07-29T06:21:24.129Z,56.82
2022-07-29T06:23:25.786Z,56.31
2022-07-29T06:25:30.220Z,56.74
2022-07-29T06:27:32.012Z,56.58
2022-07-29T06:29:33.669Z,54.92
2022-07-29T06:31:35.503Z,55.44
2022-07-29T06:33:37.313Z,55.19
2022-07-29T06:35:42.139Z,55.27
2022-07-29T06:37:44.332Z,55.41
2022-07-29T06:39:48.720Z,55.28
2022-07-29T06:41:51.583Z,55.54
2022-07-29T06:43:54.606Z,55.27
2022-07-29T06:46:00.523Z,53.70
2022-07-29T06:48:02.258Z,53.40
2022-07-29T06:50:05.412Z,53.26
2022-07-29T06:52:09.528Z,52.96
2022-07-29T06:54:11.285Z,52.96
2022-07-29T06:56:15.183Z,52.79
2022-07-29T06:58:18.928Z,53.17
2022-07-29T07:00:20.805Z,53.70
2022-07-29T07:02:22.493Z,53.31
2022-07-29T07:04:24.296Z,53.83
2022-07-29T07:06:25.990Z,54.10
2022-07-29T07:08:27.737Z,54.39
2022-07-29T07:10:29.401Z,54.71
2022-07-29T07:12:31.075Z,53.93
2022-07-29T07:14:33.019Z,53.30
2022-07-29T07:16:34.668Z,52.68
2022-07-29T07:18:36.353Z,51.92
2022-07-29T07:20:38.189Z,52.15
2022-07-29T07:22:39.815Z,51.98
2022-07-29T07:24:41.450Z,51.90
2022-07-29T07:26:43.196Z,51.39
2022-07-29T07:28:44.911Z,51.38
2022-07-29T07:30:46.774Z,51.85
2022-07-29T07:32:48.668Z,51.61
2022-07-29T07:34:50.310Z,51.50
2022-07-29T07:36:51.944Z,51.40
2022-07-29T07:38:53.619Z,51.48
2022-07-29T07:40:55.264Z,50.45
2022-07-29T07:42:56.965Z,50.34
2022-07-29T07:45:13.016Z,50.36
2022-07-29T07:47:21.358Z,49.41
2022-07-29T07:49:24.373Z,50.06
2022-07-29T07:51:26.098Z,50.94
2022-07-29T07:53:27.834Z,50.38
2022-07-29T07:55:42.438Z,49.67
2022-07-29T07:57:51.389Z,49.53
2022-07-29T07:59:53.068Z,48.65
2022-07-29T08:01:55.802Z,48.05
2022-07-29T08:03:57.977Z,48.17
2022-07-29T08:05:59.652Z,48.63
2022-07-29T08:08:01.363Z,48.48
2022-07-29T08:10:03.608Z,48.23
2022-07-29T08:12:06.708Z,47.75
2022-07-29T08:14:08.404Z,47.61
2022-07-29T08:16:13.445Z,47.05
2022-07-29T08:18:15.289Z,47.07
2022-07-29T08:20:16.950Z,46.88
2022-07-29T08:22:20.250Z,46.38
2022-07-29T08:24:40.837Z,45.39
2022-07-29T08:26:43.507Z,46.30
2022-07-29T08:28:46.850Z,46.08
2022-07-29T08:30:48.731Z,45.84
2022-07-29T08:32:54.993Z,44.99
2022-07-29T08:34:57.582Z,44.55
2022-07-29T08:36:59.760Z,44.55
2022-07-29T08:39:02.766Z,44.71
2022-07-29T08:41:04.393Z,44.56
2022-07-29T08:43:10.082Z,44.80
2022-07-29T08:45:11.894Z,43.43
2022-07-29T08:47:15.186Z,43.03
2022-07-29T08:49:17.197Z,42.85
2022-07-29T08:51:20.688Z,43.57
2022-07-29T08:53:22.994Z,43.51
2022-07-29T08:55:24.824Z,43.02
2022-07-29T08:57:26.712Z,42.80
2022-07-29T08:59:31.276Z,43.02
2022-07-29T09:01:35.740Z,42.12
2022-07-29T09:03:40.046Z,42.23
2022-07-29T09:05:47.859Z,41.69
2022-07-29T09:07:51.148Z,41.73
2022-07-29T09:09:52.941Z,41.62
2022-07-29T09:11:58.116Z,41.20
2022-07-29T09:14:00.389Z,41.08
2022-07-29T09:16:08.643Z,40.69
2022-07-29T09:18:20.341Z,41.03
2022-07-29T09:20:51.150Z,40.52
2022-07-29T09:22:54.583Z,40.21
2022-07-29T09:24:56.404Z,39.42
2022-07-29T09:26:58.130Z,39.28
2022-07-29T09:29:00.689Z,39.13
2022-07-29T09:31:03.543Z,38.88
2022-07-29T09:33:05.211Z,38.94
2022-07-29T09:35:36.173Z,39.55
2022-07-29T09:37:37.817Z,39.45
2022-07-29T09:39:46.737Z,39.73
2022-07-29T09:41:54.223Z,39.50
2022-07-29T09:43:57.479Z,39.04
2022-07-29T09:46:12.304Z,38.78
2022-07-29T09:48:19.871Z,38.24
2022-07-29T09:50:24.982Z,38.05
2022-07-29T09:52:27.965Z,38.39
2022-07-29T09:54:29.638Z,37.95
2022-07-29T09:56:41.573Z,37.67
2022-07-29T09:58:43.181Z,37.20
2022-07-29T10:00:46.974Z,37.61
2022-07-29T10:02:49.293Z,38.12
2022-07-29T10:04:52.078Z,38.37
2022-07-29T10:07:04.798Z,38.37
2022-07-29T10:09:11.951Z,38.91
2022-07-29T10:11:20.323Z,39.51
2022-07-29T10:13:22.075Z,39.11
2022-07-29T10:15:27.788Z,38.79
2022-07-29T10:17:29.524Z,38.18
2022-07-29T10:19:32.465Z,38.06
2022-07-29T10:21:35.317Z,38.22
2022-07-29T10:23:46.817Z,37.97
2022-07-29T10:25:49.133Z,37.17
2022-07-29T10:27:54.627Z,37.69
2022-07-29T10:29:56.342Z,37.74
2022-07-29T10:32:22.775Z,37.80
2022-07-29T10:34:46.469Z,38.07
2022-07-29T10:37:35.359Z,37.68
2022-07-29T10:40:31.966Z,37.41
2022-07-29T10:42:41.161Z,37.21
2022-07-29T10:44:44.243Z,36.59
2022-07-29T10:46:46.382Z,36.78
2022-07-29T10:49:11.421Z,36.80
2022-07-29T10:51:16.781Z,35.68
2022-07-29T10:53:19.859Z,35.97
2022-07-29T10:55:39.447Z,36.35
2022-07-29T10:58:26.361Z,36.60
2022-07-29T11:00:30.510Z,36.92
2022-07-29T11:02:41.763Z,37.02
2022-07-29T11:04:45.231Z,36.80
2022-07-29T11:07:15.155Z,36.94
2022-07-29T11:11:43.972Z,36.01
2022-07-29T11:13:57.057Z,35.80
2022-07-29T11:15:59.333Z,35.30
2022-07-29T11:18:03.886Z,35.88
2022-07-29T11:20:43.453Z,35.60
2022-07-29T11:22:47.361Z,35.57
2022-07-29T11:25:17.792Z,35.34
2022-07-29T11:27:21.991Z,35.16
2022-07-29T11:29:24.191Z,34.55
2022-07-29T11:31:44.366Z,34.61
2022-07-29T11:33:55.931Z,34.55
2022-07-29T11:36:16.651Z,35.03
2022-07-29T11:41:25.320Z,35.51
2022-07-29T11:43:50.600Z,35.42
2022-07-29T11:45:52.696Z,35.48
2022-07-29T11:48:28.955Z,35.76
2022-07-29T11:50:35.391Z,35.31
2022-07-29T11:52:49.683Z,34.97
2022-07-29T11:54:58.463Z,34.92
2022-07-29T11:57:02.573Z,35.09
2022-07-29T11:59:08.355Z,34.98
2022-07-29T12:01:15.082Z,34.74
2022-07-29T12:03:35.517Z,34.68
2022-07-29T12:05:48.418Z,34.21
2022-07-29T12:07:53.599Z,34.76
2022-07-29T12:09:56.813Z,34.55
2022-07-29T12:12:04.764Z,33.93
2022-07-29T12:14:07.084Z,33.33
2022-07-29T12:16:08.848Z,33.51
2022-07-29T12:18:18.936Z,33.35
2022-07-29T12:20:28.991Z,32.85
2022-07-29T12:22:41.374Z,33.03
2022-07-29T12:24:46.261Z,32.19
2022-07-29T12:26:56.040Z,32.82
2022-07-29T12:28:57.768Z,33.32
2022-07-29T12:31:04.846Z,33.04
2022-07-29T12:33:21.055Z,31.85
2022-07-29T12:35:23.139Z,31.62
2022-07-29T12:37:40.676Z,32.23
2022-07-29T12:39:44.602Z,32.06
2022-07-29T12:41:47.290Z,32.06
2022-07-29T12:43:55.469Z,32.04
2022-07-29T12:45:58.224Z,32.53
2022-07-29T12:48:00.037Z,31.89
2022-07-29T12:50:22.125Z,32.35
2022-07-29T12:52:30.660Z,31.34
2022-07-29T12:54:32.355Z,31.58
2022-07-29T12:56:43.702Z,31.86
2022-07-29T12:58:50.825Z,31.89
2022-07-29T13:01:01.371Z,32.08
2022-07-29T13:03:03.235Z,32.15
2022-07-29T13:05:09.923Z,31.97
2022-07-29T13:07:12.841Z,31.23
2022-07-29T13:09:19.213Z,31.44
2022-07-29T13:11:44.026Z,31.86
2022-07-29T13:14:03.140Z,31.91
2022-07-29T13:16:09.105Z,31.45
2022-07-29T13:18:33.189Z,31.76
2022-07-29T13:20:34.967Z,31.58
2022-07-29T13:22:37.060Z,31.42
2022-07-29T13:24:55.055Z,30.48
2022-07-29T13:26:56.795Z,30.77
2022-07-29T13:28:58.669Z,31.02
2022-07-29T13:31:00.832Z,31.22
2022-07-29T13:33:02.617Z,32.07
2022-07-29T13:35:08.809Z,31.71
2022-07-29T13:37:10.475Z,31.41
2022-07-29T13:39:13.647Z,31.76
2022-07-29T13:41:15.324Z,31.42
2022-07-29T13:43:17.053Z,31.83
2022-07-29T13:45:18.801Z,31.35
2022-07-29T13:47:21.428Z,31.28
2022-07-29T13:49:23.717Z,30.88
2022-07-29T13:51:25.493Z,30.90
2022-07-29T13:53:28.080Z,30.91
2022-07-29T13:55:29.733Z,30.73
2022-07-29T13:57:31.737Z,30.71
2022-07-29T13:59:33.545Z,30.22
2022-07-29T14:01:36.334Z,30.12
2022-07-29T14:03:41.755Z,29.96
2022-07-29T14:05:47.458Z,30.49
2022-07-29T14:07:49.283Z,29.89
2022-07-29T14:09:51.284Z,29.98
2022-07-29T14:11:53.883Z,29.86
2022-07-29T14:13:55.512Z,30.22
2022-07-29T14:15:57.152Z,30.03
2022-07-29T14:17:58.859Z,30.08
2022-07-29T14:20:00.509Z,30.75
2022-07-29T14:22:04.097Z,29.95
2022-07-29T14:24:09.288Z,30.28
2022-07-29T14:26:21.714Z,30.02
2022-07-29T14:28:26.011Z,29.98
2022-07-29T14:30:27.722Z,29.87
2022-07-29T14:32:30.181Z,29.88
2022-07-29T14:34:32.324Z,30.82
2022-07-29T14:36:33.982Z,30.36
2022-07-29T14:38:36.065Z,29.72
2022-07-29T14:40:37.842Z,30.41
2022-07-29T14:42:40.025Z,29.55
2022-07-29T14:44:42.577Z,29.17
2022-07-29T14:46:44.623Z,29.34
2022-07-29T14:48:50.262Z,29.16
2022-07-29T14:50:51.908Z,28.78
2022-07-29T14:52:54.105Z,28.80
2022-07-29T14:54:55.768Z,29.00
2022-07-29T14:56:58.321Z,29.18
2022-07-29T14:59:00.329Z,29.54
2022-07-29T15:01:02.251Z,29.15
2022-07-29T15:03:04.885Z,29.23
2022-07-29T15:05:06.919Z,29.51
2022-07-29T15:07:09.308Z,29.63
2022-07-29T15:09:11.117Z,29.91
2022-07-29T15:11:13.199Z,28.98
2022-07-29T15:13:14.822Z,29.31
2022-07-29T15:15:16.552Z,29.18
2022-07-29T15:17:18.230Z,29.32
2022-07-29T15:19:21.077Z,29.25
2022-07-29T15:21:22.772Z,29.10
2022-07-29T15:23:24.447Z,28.85
2022-07-29T15:25:28.376Z,29.17
2022-07-29T15:27:30.161Z,29.77
2022-07-29T15:29:31.859Z,29.18
2022-07-29T15:31:33.579Z,29.01
2022-07-29T15:33:35.215Z,29.13
2022-07-29T15:35:40.586Z,29.61
2022-07-29T15:37:49.107Z,29.87
2022-07-29T15:39:51.355Z,29.94
2022-07-29T15:41:53.302Z,30.55
2022-07-29T17:13:47.969Z,38.17
2022-07-29T17:15:49.842Z,37.98
2022-07-29T17:17:55.007Z,37.38
2022-07-29T17:19:57.624Z,36.76
2022-07-29T17:22:07.003Z,36.46
2022-07-29T17:24:12.062Z,36.44
2022-07-29T17:26:13.854Z,35.95
2022-07-29T17:28:15.864Z,36.22
2022-07-29T17:30:18.361Z,36.04
2022-07-29T17:32:20.115Z,35.79
2022-07-29T17:34:21.817Z,36.13
2022-07-29T17:36:23.789Z,36.10
2022-07-29T17:38:25.568Z,37.18
2022-07-29T17:40:27.529Z,36.28
2022-07-29T17:42:29.183Z,36.20
2022-07-29T17:44:31.026Z,36.24
2022-07-29T17:46:33.963Z,35.94
2022-07-29T17:48:36.316Z,36.64
2022-07-29T17:50:38.105Z,36.20
2022-07-29T17:52:40.841Z,36.42
2022-07-29T17:54:42.486Z,36.03
2022-07-29T17:56:44.114Z,36.56
2022-07-29T17:58:47.563Z,36.18
2022-07-29T18:00:49.420Z,36.33
2022-07-29T18:02:51.150Z,36.41
2022-07-29T18:04:53.017Z,36.06
2022-07-29T18:06:54.688Z,36.18
2022-07-29T18:08:56.400Z,36.52
2022-07-29T18:10:58.077Z,36.58
2022-07-29T18:12:59.774Z,36.32
2022-07-29T18:15:01.431Z,36.32
2022-07-29T18:17:03.252Z,36.39
2022-07-29T18:19:04.970Z,36.08
2022-07-29T18:21:07.068Z,36.11
2022-07-29T18:23:08.931Z,36.41
2022-07-29T18:25:11.951Z,35.80
2022-07-29T18:27:13.648Z,35.86
2022-07-29T18:29:15.335Z,36.18
2022-07-29T18:31:17.087Z,35.71
2022-07-29T18:33:21.703Z,35.97
2022-07-29T18:35:24.206Z,35.84
2022-07-29T18:38:02.283Z,36.32
2022-07-29T18:39:47.470Z,36.22
2022-07-29T18:41:51.349Z,36.37
2022-07-29T18:43:53.256Z,36.67
2022-07-29T18:45:56.351Z,36.23
2022-07-29T18:47:58.849Z,36.69
2022-07-29T18:50:00.812Z,36.44
2022-07-29T18:52:02.479Z,36.60
2022-07-29T18:54:05.601Z,36.56
2022-07-29T18:56:07.265Z,35.96
2022-07-29T18:58:08.887Z,36.55
2022-07-29T19:00:12.000Z,36.78
2022-07-29T19:02:16.661Z,36.53
2022-07-29T19:04:18.823Z,36.60
2022-07-29T19:06:24.060Z,36.44
2022-07-29T19:08:27.443Z,36.62
2022-07-29T19:10:29.592Z,36.36
2022-07-29T19:12:31.412Z,36.55
2022-07-29T19:14:33.107Z,36.25
2022-07-29T19:16:35.040Z,36.46
2022-07-29T19:18:36.739Z,36.79
2022-07-29T19:20:39.172Z,36.62
2022-07-29T19:22:40.853Z,37.30
2022-07-29T19:24:42.585Z,36.90
2022-07-29T19:26:47.060Z,36.66
2022-07-29T19:28:49.221Z,36.82
2022-07-29T19:30:51.171Z,36.84
2022-07-29T19:32:52.838Z,36.94
2022-07-29T19:35:13.286Z,36.92
2022-07-29T19:37:14.952Z,37.65
2022-07-29T19:39:16.597Z,37.78
2022-07-29T19:41:18.304Z,37.76
2022-07-29T19:43:49.525Z,37.99
2022-07-29T19:45:41.714Z,38.09
2022-07-29T19:47:43.631Z,37.81
2022-07-29T19:49:45.343Z,37.97
2022-07-29T19:51:46.960Z,38.48
2022-07-29T19:53:49.468Z,38.07
2022-07-29T19:55:51.150Z,38.65
2022-07-29T19:57:53.206Z,38.96
2022-07-29T19:59:54.861Z,38.88
2022-07-29T20:01:57.952Z,38.81
2022-07-29T20:03:59.731Z,39.42
2022-07-29T20:06:01.435Z,39.14
2022-07-29T20:08:04.880Z,39.09
2022-07-29T20:10:06.877Z,38.77
2022-07-29T20:12:09.584Z,38.75
2022-07-29T20:14:11.338Z,39.15
2022-07-29T20:16:13.117Z,38.99
2022-07-29T20:18:16.085Z,39.00
2022-07-29T20:20:17.795Z,39.01
2022-07-29T20:22:20.978Z,39.71
2022-07-29T20:24:23.272Z,39.73
2022-07-29T20:26:24.903Z,39.64
2022-07-29T20:28:26.633Z,39.70
2022-07-29T20:30:28.290Z,39.70
2022-07-29T20:32:31.136Z,39.73
2022-07-29T20:34:32.935Z,39.48
2022-07-29T20:36:34.538Z,39.58
2022-07-29T20:38:36.277Z,39.99
2022-07-29T20:40:39.538Z,40.01
2022-07-29T20:42:41.191Z,40.24
2022-07-29T20:44:42.913Z,40.20
2022-07-29T20:46:45.547Z,40.16
2022-07-29T20:48:47.426Z,40.12
2022-07-29T20:50:49.191Z,40.22
2022-07-29T20:52:51.760Z,40.37
2022-07-29T20:54:53.454Z,40.43
2022-07-29T20:56:55.117Z,40.60
2022-07-29T20:58:56.841Z,40.44
2022-07-29T21:00:58.524Z,40.67
2022-07-29T21:03:01.801Z,40.77
2022-07-29T21:05:03.686Z,40.52
2022-07-29T21:07:06.242Z,40.56
2022-07-29T21:09:07.913Z,40.97
2022-07-29T21:11:09.891Z,41.09
2022-07-29T21:13:11.707Z,41.12
2022-07-29T21:15:17.505Z,41.07
2022-07-29T21:17:22.658Z,40.99
2022-07-29T21:19:24.440Z,41.58
2022-07-29T21:21:26.959Z,41.40
2022-07-29T21:23:28.608Z,41.83
2022-07-29T21:25:30.239Z,41.57
2022-07-29T21:27:50.612Z,41.63
2022-07-29T21:29:52.354Z,41.60
2022-07-29T21:31:53.983Z,41.70
2022-07-29T21:33:55.834Z,41.69
2022-07-29T21:38:21.933Z,41.81
2022-07-29T21:40:23.622Z,41.76
2022-07-29T21:42:25.408Z,41.81
2022-07-29T21:44:27.238Z,41.93
2022-07-29T21:46:29.043Z,41.82
2022-07-29T21:48:30.786Z,41.49
2022-07-29T21:50:33.171Z,42.07
2022-07-29T21:52:34.858Z,42.00
2022-07-29T21:54:39.122Z,41.85
2022-07-29T21:56:40.721Z,41.80
2022-07-29T21:58:43.469Z,41.94
2022-07-29T22:00:45.478Z,42.01
2022-07-29T22:02:47.965Z,42.05
2022-07-29T22:04:50.646Z,42.19
2022-07-29T22:06:52.414Z,42.05
2022-07-29T22:08:54.056Z,42.21
2022-07-29T22:10:55.692Z,42.22
2022-07-29T22:12:58.981Z,42.40
2022-07-29T22:15:02.262Z,42.26
2022-07-29T22:17:04.207Z,42.26
2022-07-29T22:19:05.927Z,42.07
2022-07-29T22:21:07.959Z,41.95
2022-07-29T22:23:09.623Z,41.87
2022-07-29T22:25:11.533Z,41.83
2022-07-29T22:27:13.800Z,41.81
2022-07-29T22:29:17.714Z,41.94
2022-07-29T22:31:19.453Z,41.69
2022-07-29T22:33:21.156Z,41.91
2022-07-29T22:35:22.787Z,41.76
2022-07-29T22:37:24.454Z,41.66
2022-07-29T22:39:26.187Z,41.58
2022-07-29T22:41:27.877Z,41.53
2022-07-29T22:43:29.638Z,41.61
2022-07-29T22:45:31.396Z,41.60
2022-07-29T22:47:46.422Z,41.55
2022-07-29T22:49:50.252Z,41.39
2022-07-29T22:51:51.928Z,41.49
2022-07-29T22:53:53.690Z,41.52
2022-07-29T22:55:55.380Z,41.65
2022-07-29T22:57:57.036Z,41.42
2022-07-29T23:00:01.642Z,41.85
2022-07-29T23:02:03.611Z,41.89
2022-07-29T23:04:06.162Z,41.55
2022-07-29T23:06:08.230Z,41.69
2022-07-29T23:08:09.845Z,41.66
2022-07-29T23:10:11.935Z,41.68
2022-07-29T23:12:13.656Z,41.68
2022-07-29T23:14:15.300Z,41.94
2022-07-29T23:16:26.296Z,41.34
2022-07-29T23:18:28.721Z,41.54
2022-07-29T23:20:30.522Z,41.89
2022-07-29T23:22:32.161Z,41.84
2022-07-29T23:24:33.833Z,41.56
2022-07-29T23:26:36.934Z,41.56
2022-07-29T23:28:38.599Z,41.58
2022-07-29T23:30:41.619Z,41.96
2022-07-29T23:32:43.278Z,42.09
2022-07-29T23:34:44.887Z,41.58
2022-07-29T23:36:46.791Z,41.65
2022-07-29T23:38:48.561Z,41.98
2022-07-29T23:40:50.825Z,41.84
2022-07-29T23:42:52.550Z,41.83
2022-07-29T23:44:54.238Z,42.07
2022-07-29T23:46:55.966Z,42.00
2022-07-29T23:48:57.663Z,42.06
2022-07-29T23:51:01.215Z,42.01
2022-07-29T23:53:02.927Z,42.06
2022-07-29T23:55:36.686Z,42.21
2022-07-29T23:57:27.413Z,42.28
2022-07-29T23:59:29.034Z,42.20
